createdAt,value
2022-11-16T00:02:16.611Z,11.50
2022-11-16T00:04:43.433Z,11.80
2022-11-16T00:07:10.156Z,11.80
2022-11-16T00:09:36.844Z,11.80
2022-11-16T00:12:03.470Z,11.80
2022-11-16T00:14:30.360Z,11.90
2022-11-16T00:16:56.973Z,11.90
2022-11-16T00:19:23.646Z,12.00
2022-11-16T00:21:50.280Z,12.00
2022-11-16T00:24:16.937Z,12.00
2022-11-16T00:26:43.585Z,11.90
2022-11-16T00:29:10.217Z,11.50
2022-11-16T00:31:36.961Z,11.30
2022-11-16T00:34:03.611Z,11.30
2022-11-16T00:36:30.248Z,11.50
2022-11-16T00:38:56.900Z,11.60
2022-11-16T00:41:23.533Z,11.50
2022-11-16T00:43:50.190Z,11.30
2022-11-16T00:46:16.828Z,11.20
2022-11-16T00:48:43.491Z,11.00
2022-11-16T00:51:10.150Z,11.10
2022-11-16T00:53:36.797Z,11.20
2022-11-16T00:56:03.409Z,11.30
2022-11-16T00:58:30.138Z,11.20
2022-11-16T01:00:56.939Z,11.20
2022-11-16T01:03:23.575Z,11.30
2022-11-16T01:05:50.221Z,11.50
2022-11-16T01:08:16.869Z,11.20
2022-11-16T01:10:43.562Z,11.10
2022-11-16T01:13:10.212Z,11.10
2022-11-16T01:15:36.885Z,11.20
2022-11-16T01:18:03.543Z,11.20
2022-11-16T01:20:30.147Z,11.20
2022-11-16T01:22:56.938Z,11.20
2022-11-16T01:25:23.565Z,11.20
2022-11-16T01:27:50.227Z,11.30
2022-11-16T01:30:16.863Z,11.30
2022-11-16T01:32:43.480Z,11.20
2022-11-16T01:35:10.133Z,10.90
2022-11-16T01:37:36.763Z,10.80
2022-11-16T01:40:03.439Z,10.70
2022-11-16T01:42:30.141Z,10.50
2022-11-16T01:44:56.785Z,10.40
2022-11-16T01:47:23.445Z,10.30
2022-11-16T01:49:50.081Z,10.30
2022-11-16T01:52:17.040Z,10.40
2022-11-16T01:54:43.673Z,10.50
2022-11-16T01:57:10.352Z,10.40
2022-11-16T01:59:37.001Z,10.40
2022-11-16T02:02:03.614Z,10.30
2022-11-16T02:04:30.268Z,10.30
2022-11-16T02:06:56.915Z,10.40
2022-11-16T02:09:23.638Z,10.40
2022-11-16T02:11:50.255Z,10.20
2022-11-16T02:14:16.931Z,10.30
2022-11-16T02:16:43.775Z,9.60
2022-11-16T02:19:10.530Z,9.50
2022-11-16T02:21:37.156Z,9.60
2022-11-16T02:24:03.817Z,9.80
2022-11-16T02:26:30.434Z,9.60
2022-11-16T02:28:57.098Z,9.80
2022-11-16T02:31:23.713Z,9.80
2022-11-16T02:33:50.386Z,9.90
2022-11-16T02:36:17.028Z,10.00
2022-11-16T02:38:43.631Z,10.00
2022-11-16T02:41:10.302Z,9.90
2022-11-16T02:43:36.934Z,9.80
2022-11-16T02:46:03.819Z,9.50
2022-11-16T02:48:30.653Z,9.20
2022-11-16T02:50:57.520Z,9.40
2022-11-16T02:53:24.195Z,9.50
2022-11-16T02:55:50.846Z,9.70
2022-11-16T02:58:17.471Z,9.40
2022-11-16T03:00:44.218Z,9.30
2022-11-16T03:03:10.978Z,9.20
2022-11-16T03:05:37.791Z,9.20
2022-11-16T03:08:04.431Z,9.10
2022-11-16T03:10:31.040Z,9.00
2022-11-16T03:12:57.711Z,9.20
2022-11-16T03:15:24.366Z,9.30
2022-11-16T03:17:51.026Z,9.60
2022-11-16T03:20:17.686Z,9.90
2022-11-16T03:22:44.353Z,9.90
2022-11-16T03:25:10.979Z,9.90
2022-11-16T03:27:37.640Z,9.60
2022-11-16T03:30:04.323Z,9.40
2022-11-16T03:32:31.060Z,9.60
2022-11-16T03:34:57.715Z,9.80
2022-11-16T03:37:25.390Z,9.70
2022-11-16T03:39:52.020Z,9.40
2022-11-16T03:42:18.641Z,9.50
2022-11-16T03:44:45.484Z,9.80
2022-11-16T03:47:12.349Z,10.00
2022-11-16T03:49:41.235Z,10.10
2022-11-16T03:52:07.874Z,9.80
2022-11-16T03:54:41.837Z,9.40
2022-11-16T03:57:13.420Z,9.50
2022-11-16T03:59:40.047Z,9.60
2022-11-16T04:02:09.468Z,9.80
2022-11-16T04:04:36.547Z,9.80
2022-11-16T04:07:03.268Z,9.70
2022-11-16T04:09:30.164Z,9.70
2022-11-16T04:11:56.942Z,9.90
2022-11-16T04:14:23.727Z,10.20
2022-11-16T04:16:50.373Z,10.00
2022-11-16T04:19:17.109Z,9.90
2022-11-16T04:21:49.344Z,9.80
2022-11-16T04:24:16.967Z,9.70
2022-11-16T04:26:44.672Z,10.00
2022-11-16T04:29:13.823Z,10.00
2022-11-16T04:31:40.622Z,10.20
2022-11-16T04:34:07.429Z,10.00
2022-11-16T04:36:41.377Z,9.90
2022-11-16T04:39:09.152Z,10.00
2022-11-16T04:41:36.325Z,9.70
2022-11-16T04:44:07.095Z,9.70
2022-11-16T04:46:34.109Z,9.70
2022-11-16T04:49:03.863Z,9.80
2022-11-16T04:51:30.514Z,9.80
2022-11-16T04:53:57.265Z,9.80
2022-11-16T04:56:23.907Z,9.50
2022-11-16T04:58:51.596Z,9.50
2022-11-16T05:01:18.307Z,9.00
2022-11-16T05:03:45.067Z,8.90
2022-11-16T05:06:11.708Z,9.00
2022-11-16T05:08:38.660Z,9.40
2022-11-16T05:11:05.342Z,9.50
2022-11-16T05:13:31.971Z,9.70
2022-11-16T05:15:58.625Z,9.80
2022-11-16T05:18:25.289Z,9.90
2022-11-16T05:20:51.928Z,9.80
2022-11-16T05:23:18.582Z,8.80
2022-11-16T05:25:45.218Z,8.60
2022-11-16T05:28:11.909Z,8.60
2022-11-16T05:30:38.600Z,8.50
2022-11-16T05:33:05.665Z,8.60
2022-11-16T05:35:32.355Z,8.90
2022-11-16T05:37:58.967Z,8.80
2022-11-16T05:40:25.640Z,8.90
2022-11-16T05:42:52.262Z,8.60
2022-11-16T05:45:21.149Z,8.90
2022-11-16T05:47:48.023Z,8.90
2022-11-16T05:50:14.751Z,9.20
2022-11-16T05:52:41.423Z,9.50
2022-11-16T05:55:08.041Z,9.50
2022-11-16T05:57:34.727Z,9.40
2022-11-16T06:00:01.413Z,9.30
2022-11-16T06:02:28.038Z,9.50
2022-11-16T06:04:54.682Z,9.60
2022-11-16T06:07:21.365Z,9.20
2022-11-16T06:09:48.051Z,9.30
2022-11-16T06:12:14.681Z,9.00
2022-11-16T06:14:41.393Z,8.70
2022-11-16T06:17:08.014Z,8.70
2022-11-16T06:19:34.700Z,8.80
2022-11-16T06:22:01.353Z,8.90
2022-11-16T06:24:27.997Z,8.90
2022-11-16T06:26:54.678Z,8.60
2022-11-16T06:29:21.324Z,8.80
2022-11-16T06:31:47.971Z,9.00
2022-11-16T06:34:14.575Z,9.00
2022-11-16T06:36:41.221Z,8.90
2022-11-16T06:39:08.758Z,9.10
2022-11-16T06:41:40.202Z,9.40
2022-11-16T06:44:07.957Z,9.60
2022-11-16T06:46:34.673Z,9.70
2022-11-16T06:49:01.338Z,9.50
2022-11-16T06:51:27.992Z,9.30
2022-11-16T06:53:54.632Z,9.10
2022-11-16T06:56:21.289Z,9.40
2022-11-16T06:58:52.908Z,9.50
2022-11-16T07:01:20.324Z,9.30
2022-11-16T07:03:46.988Z,9.20
2022-11-16T07:06:13.616Z,9.10
2022-11-16T07:08:40.294Z,9.40
2022-11-16T07:11:07.000Z,9.60
2022-11-16T07:13:33.654Z,9.90
2022-11-16T07:16:00.284Z,9.70
2022-11-16T07:18:26.970Z,9.80
2022-11-16T07:20:53.652Z,9.70
2022-11-16T07:23:20.307Z,9.90
2022-11-16T07:25:47.010Z,9.90
2022-11-16T07:28:13.673Z,10.00
2022-11-16T07:30:40.292Z,9.80
2022-11-16T07:33:06.944Z,9.60
2022-11-16T07:35:33.581Z,9.60
2022-11-16T07:38:00.229Z,9.70
2022-11-16T07:40:26.847Z,9.50
2022-11-16T07:42:53.483Z,9.50
2022-11-16T07:45:20.134Z,9.80
2022-11-16T07:47:46.798Z,9.70
2022-11-16T07:50:13.415Z,9.80
2022-11-16T07:52:40.029Z,10.00
2022-11-16T07:55:06.757Z,9.80
2022-11-16T07:57:33.383Z,9.90
2022-11-16T08:00:00.052Z,9.50
2022-11-16T08:02:26.696Z,9.50
2022-11-16T08:04:53.344Z,9.80
2022-11-16T08:07:20.133Z,10.10
2022-11-16T08:09:46.872Z,10.00
2022-11-16T08:12:13.513Z,10.20
2022-11-16T08:14:40.173Z,10.10
2022-11-16T08:17:06.833Z,10.30
2022-11-16T08:19:33.508Z,10.30
2022-11-16T08:22:00.156Z,10.50
2022-11-16T08:24:26.791Z,10.60
2022-11-16T08:26:53.433Z,10.70
2022-11-16T08:29:20.077Z,10.60
2022-11-16T08:31:46.763Z,10.00
2022-11-16T08:34:13.419Z,10.00
2022-11-16T08:36:40.054Z,9.80
2022-11-16T08:39:06.742Z,10.30
2022-11-16T08:41:33.402Z,10.20
2022-11-16T08:44:00.028Z,10.30
2022-11-16T08:46:26.687Z,10.30
2022-11-16T08:48:53.333Z,10.40
2022-11-16T08:51:20.621Z,10.00
2022-11-16T08:53:47.720Z,10.20
2022-11-16T08:56:14.363Z,10.00
2022-11-16T08:58:40.995Z,9.90
2022-11-16T09:01:07.629Z,10.00
2022-11-16T09:03:34.327Z,10.40
2022-11-16T09:06:00.970Z,10.80
2022-11-16T09:08:27.644Z,10.50
2022-11-16T09:10:54.302Z,10.30
2022-11-16T09:13:20.950Z,10.20
2022-11-16T09:15:47.592Z,10.20
2022-11-16T09:18:14.256Z,10.10
2022-11-16T09:20:40.896Z,10.40
2022-11-16T09:23:07.595Z,10.40
2022-11-16T09:25:34.259Z,10.50
2022-11-16T09:28:00.909Z,10.70
2022-11-16T09:30:27.550Z,10.50
2022-11-16T09:32:54.305Z,10.30
2022-11-16T09:35:20.952Z,10.60
2022-11-16T09:37:47.598Z,10.70
2022-11-16T09:40:14.303Z,10.50
2022-11-16T09:42:41.016Z,10.00
2022-11-16T09:45:07.671Z,10.20
2022-11-16T09:47:34.631Z,10.30
2022-11-16T09:50:03.932Z,10.30
2022-11-16T09:52:30.993Z,10.30
2022-11-16T09:54:57.671Z,10.20
2022-11-16T09:57:24.313Z,10.20
2022-11-16T09:59:50.958Z,10.20
2022-11-16T10:02:17.629Z,10.50
2022-11-16T10:04:44.281Z,10.30
2022-11-16T10:07:11.402Z,10.60
2022-11-16T10:09:38.071Z,11.00
2022-11-16T10:12:04.702Z,11.20
2022-11-16T10:14:31.348Z,11.10
2022-11-16T10:16:57.982Z,11.20
2022-11-16T10:19:24.624Z,11.30
2022-11-16T10:21:51.272Z,11.30
2022-11-16T10:24:17.925Z,10.80
2022-11-16T10:26:44.632Z,10.90
2022-11-16T10:29:11.268Z,10.00
2022-11-16T10:31:37.898Z,9.80
2022-11-16T10:34:04.581Z,10.10
2022-11-16T10:36:31.255Z,10.50
2022-11-16T10:38:57.887Z,11.10
2022-11-16T10:41:24.544Z,11.70
2022-11-16T10:43:53.576Z,11.50
2022-11-16T10:46:20.217Z,11.90
2022-11-16T10:48:46.877Z,12.10
2022-11-16T10:51:13.508Z,12.00
2022-11-16T10:53:40.149Z,11.70
2022-11-16T10:56:06.757Z,11.90
2022-11-16T10:58:33.393Z,11.70
2022-11-16T11:01:00.113Z,11.80
2022-11-16T11:03:26.834Z,11.30
2022-11-16T11:05:53.527Z,11.20
2022-11-16T11:08:20.239Z,11.40
2022-11-16T11:10:46.868Z,11.60
2022-11-16T11:13:13.503Z,11.70
2022-11-16T11:15:40.203Z,11.80
2022-11-16T11:18:06.848Z,11.70
2022-11-16T11:20:33.569Z,11.40
2022-11-16T11:23:00.203Z,11.50
2022-11-16T11:25:26.902Z,11.70
2022-11-16T11:27:53.532Z,11.70
2022-11-16T11:30:20.217Z,12.00
2022-11-16T11:32:46.853Z,12.00
2022-11-16T11:35:13.500Z,11.90
2022-11-16T11:37:40.150Z,11.90
2022-11-16T11:40:06.798Z,12.10
2022-11-16T11:42:33.491Z,12.20
2022-11-16T11:45:00.121Z,12.10
2022-11-16T11:47:56.324Z,11.80
2022-11-16T11:50:13.385Z,11.50
2022-11-16T11:52:40.032Z,11.20
2022-11-16T11:55:06.719Z,11.30
2022-11-16T11:57:33.373Z,11.30
2022-11-16T12:00:00.142Z,11.50
2022-11-16T12:02:26.819Z,11.40
2022-11-16T12:04:53.485Z,11.30
2022-11-16T12:07:20.196Z,11.50
2022-11-16T12:09:46.962Z,11.50
2022-11-16T12:12:15.018Z,11.40
2022-11-16T12:14:41.762Z,11.30
2022-11-16T12:17:08.417Z,11.50
2022-11-16T12:19:35.104Z,11.70
2022-11-16T12:22:01.747Z,11.50
2022-11-16T12:24:28.387Z,11.50
2022-11-16T12:26:55.029Z,11.60
2022-11-16T12:29:21.668Z,11.40
2022-11-16T12:31:48.330Z,11.60
2022-11-16T12:34:14.991Z,12.00
2022-11-16T12:36:41.651Z,11.80
2022-11-16T12:39:08.352Z,11.60
2022-11-16T12:41:35.110Z,11.50
2022-11-16T12:44:01.764Z,11.30
2022-11-16T12:46:28.449Z,11.40
2022-11-16T12:48:55.080Z,11.60
2022-11-16T12:51:21.734Z,11.60
2022-11-16T12:53:48.425Z,11.80
2022-11-16T12:56:15.073Z,11.60
2022-11-16T12:58:41.979Z,11.60
2022-11-16T13:01:08.715Z,12.00
2022-11-16T13:03:36.656Z,12.20
2022-11-16T13:06:03.633Z,12.20
2022-11-16T13:08:30.278Z,12.20
2022-11-16T13:10:56.925Z,12.30
2022-11-16T13:13:38.831Z,12.40
2022-11-16T13:16:05.481Z,12.20
2022-11-16T13:18:32.153Z,11.80
2022-11-16T13:20:58.815Z,12.00
2022-11-16T13:23:25.452Z,12.30
2022-11-16T13:25:52.120Z,12.50
2022-11-16T13:28:18.734Z,12.80
2022-11-16T13:30:45.352Z,12.70
2022-11-16T13:33:12.061Z,12.60
2022-11-16T13:35:38.708Z,12.50
2022-11-16T13:38:05.429Z,12.30
2022-11-16T13:40:32.222Z,12.60
2022-11-16T13:42:58.905Z,12.60
2022-11-16T13:45:25.714Z,12.60
2022-11-16T13:47:52.506Z,12.20
2022-11-16T13:50:19.256Z,12.10
2022-11-16T13:55:32.944Z,12.00
2022-11-16T13:57:59.829Z,11.50
2022-11-16T14:00:26.498Z,11.50
2022-11-16T14:02:55.869Z,11.60
2022-11-16T14:05:26.587Z,11.50
2022-11-16T14:07:53.289Z,11.60
2022-11-16T14:10:19.917Z,11.60
2022-11-16T14:12:46.580Z,11.70
2022-11-16T14:15:13.241Z,11.70
2022-11-16T14:17:39.883Z,11.60
2022-11-16T14:20:06.536Z,11.50
2022-11-16T14:22:33.180Z,11.70
2022-11-16T14:27:43.867Z,12.20
2022-11-16T14:30:10.621Z,12.00
2022-11-16T14:32:42.554Z,11.80
2022-11-16T14:35:09.431Z,11.70
2022-11-16T14:37:36.134Z,11.70
2022-11-16T14:40:03.052Z,11.70
2022-11-16T14:42:29.864Z,11.40
2022-11-16T14:45:01.129Z,11.60
2022-11-16T14:47:27.836Z,11.00
2022-11-16T14:49:54.457Z,11.10
2022-11-16T14:52:21.263Z,11.30
2022-11-16T14:54:47.913Z,11.40
2022-11-16T14:57:14.602Z,11.50
2022-11-16T14:59:41.290Z,11.40
2022-11-16T15:02:07.995Z,11.20
2022-11-16T15:04:34.661Z,11.10
2022-11-16T15:07:01.342Z,11.20
2022-11-16T15:09:28.019Z,11.20
2022-11-16T15:11:54.669Z,11.20
2022-11-16T15:14:21.310Z,11.20
2022-11-16T15:16:47.948Z,11.20
2022-11-16T15:19:14.593Z,11.40
2022-11-16T15:21:41.306Z,11.50
2022-11-16T15:24:29.290Z,11.70
2022-11-16T15:26:54.814Z,11.60
2022-11-16T15:29:21.714Z,11.70
2022-11-16T15:31:48.330Z,11.60
2022-11-16T15:34:14.976Z,11.50
2022-11-16T15:36:41.833Z,11.70
2022-11-16T15:39:08.482Z,12.00
2022-11-16T15:41:35.131Z,11.90
2022-11-16T15:44:14.138Z,12.10
2022-11-16T15:46:42.115Z,12.20
2022-11-16T15:49:08.741Z,12.20
2022-11-16T15:51:35.564Z,12.20
2022-11-16T15:54:02.197Z,12.10
2022-11-16T15:56:28.846Z,12.10
2022-11-16T15:58:55.485Z,11.90
2022-11-16T16:01:22.220Z,11.20
2022-11-16T16:03:48.985Z,11.30
2022-11-16T16:06:15.642Z,11.70
2022-11-16T16:08:42.434Z,11.80
2022-11-16T16:11:09.435Z,11.90
2022-11-16T16:13:36.296Z,11.10
2022-11-16T16:16:03.057Z,11.30
2022-11-16T16:18:29.699Z,11.50
2022-11-16T16:20:56.370Z,11.70
2022-11-16T16:23:23.118Z,11.70
2022-11-16T16:25:50.719Z,11.90
2022-11-16T16:28:17.507Z,12.00
2022-11-16T16:30:44.373Z,12.00
2022-11-16T16:33:12.016Z,12.10
2022-11-16T16:35:38.712Z,12.10
2022-11-16T16:38:05.380Z,12.10
2022-11-16T16:40:32.052Z,12.20
2022-11-16T16:42:58.929Z,12.20
2022-11-16T16:45:25.586Z,12.10
2022-11-16T16:47:52.227Z,12.00
2022-11-16T16:50:18.880Z,12.00
2022-11-16T16:52:45.578Z,12.00
2022-11-16T16:55:12.244Z,11.90
2022-11-16T16:57:38.926Z,11.80
2022-11-16T17:00:05.553Z,11.80
2022-11-16T17:02:32.279Z,11.80
2022-11-16T17:04:58.931Z,11.80
2022-11-16T17:07:25.855Z,11.80
2022-11-16T17:09:52.720Z,11.90
2022-11-16T17:12:19.471Z,11.90
2022-11-16T17:14:46.090Z,11.90
2022-11-16T17:17:12.734Z,11.90
2022-11-16T17:19:39.374Z,11.90
2022-11-16T17:22:06.017Z,11.80
2022-11-16T17:24:32.684Z,11.90
2022-11-16T17:26:59.311Z,11.80
2022-11-16T17:29:28.746Z,11.80
2022-11-16T17:31:55.489Z,11.80
2022-11-16T17:34:22.593Z,11.60
2022-11-16T17:36:49.280Z,11.70
2022-11-16T17:39:15.946Z,11.60
2022-11-16T17:41:42.622Z,11.50
2022-11-16T17:44:09.296Z,11.60
2022-11-16T17:46:35.935Z,11.60
2022-11-16T17:49:02.596Z,11.70
2022-11-16T17:51:29.239Z,11.60
2022-11-16T17:53:55.864Z,11.60
2022-11-16T17:56:22.527Z,11.60
2022-11-16T17:58:49.158Z,11.50
2022-11-16T18:01:15.879Z,11.30
2022-11-16T18:03:42.541Z,11.20
2022-11-16T18:06:09.229Z,11.30
2022-11-16T18:08:35.856Z,11.40
2022-11-16T18:11:02.480Z,11.40
2022-11-16T18:13:29.201Z,11.20
2022-11-16T18:15:55.905Z,11.10
2022-11-16T18:18:22.582Z,10.90
2022-11-16T18:20:49.217Z,10.50
2022-11-16T18:23:15.897Z,10.80
2022-11-16T18:25:42.541Z,11.10
2022-11-16T18:28:09.215Z,11.20
2022-11-16T18:30:35.888Z,11.40
2022-11-16T18:33:02.608Z,11.50
2022-11-16T18:35:29.285Z,11.50
2022-11-16T18:37:55.973Z,11.30
2022-11-16T18:40:22.614Z,11.30
2022-11-16T18:42:49.253Z,11.30
2022-11-16T18:45:15.923Z,11.00
2022-11-16T18:47:42.697Z,11.00
2022-11-16T18:50:14.491Z,11.10
2022-11-16T18:52:44.839Z,11.20
2022-11-16T18:55:11.553Z,11.20
2022-11-16T18:57:38.260Z,11.30
2022-11-16T19:00:04.995Z,11.30
2022-11-16T19:02:31.713Z,10.80
2022-11-16T19:04:58.359Z,11.10
2022-11-16T19:07:25.010Z,11.10
2022-11-16T19:09:51.744Z,11.00
2022-11-16T19:12:18.635Z,10.70
2022-11-16T19:14:45.326Z,10.40
2022-11-16T19:17:12.022Z,10.50
2022-11-16T19:19:38.712Z,10.80
2022-11-16T19:22:05.332Z,10.90
2022-11-16T19:24:32.010Z,10.90
2022-11-16T19:27:00.169Z,10.90
2022-11-16T19:29:26.828Z,10.90
2022-11-16T19:31:53.491Z,10.90
2022-11-16T19:34:20.208Z,10.90
2022-11-16T19:36:46.863Z,10.90
2022-11-16T19:39:13.603Z,11.00
2022-11-16T19:41:40.249Z,10.90
2022-11-16T19:44:06.941Z,11.00
2022-11-16T19:46:33.625Z,10.90
2022-11-16T19:49:00.284Z,11.00
2022-11-16T19:51:26.956Z,11.10
2022-11-16T19:53:53.650Z,11.10
2022-11-16T19:56:20.339Z,11.10
2022-11-16T19:58:47.227Z,11.10
2022-11-16T20:01:13.998Z,11.20
2022-11-16T20:03:40.939Z,11.20
2022-11-16T20:06:07.570Z,11.20
2022-11-16T20:08:34.316Z,11.10
2022-11-16T20:11:00.992Z,11.00
2022-11-16T20:13:27.653Z,11.00
2022-11-16T20:15:54.329Z,11.00
2022-11-16T20:18:20.992Z,10.80
2022-11-16T20:20:47.756Z,10.40
2022-11-16T20:23:14.410Z,10.60
2022-11-16T20:25:41.032Z,10.50
2022-11-16T20:28:07.679Z,10.40
2022-11-16T20:30:34.324Z,10.50
2022-11-16T20:33:01.009Z,10.60
2022-11-16T20:35:27.659Z,10.70
2022-11-16T20:37:54.326Z,10.80
2022-11-16T20:40:20.964Z,10.90
2022-11-16T20:42:47.689Z,10.80
2022-11-16T20:45:14.337Z,10.50
2022-11-16T20:47:40.985Z,10.50
2022-11-16T20:50:07.723Z,10.30
2022-11-16T20:52:38.291Z,10.50
2022-11-16T20:55:09.021Z,10.70
2022-11-16T20:57:35.679Z,10.80
2022-11-16T21:00:02.311Z,10.80
2022-11-16T21:02:29.018Z,10.70
2022-11-16T21:05:00.073Z,10.70
2022-11-16T21:07:27.248Z,10.30
2022-11-16T21:09:53.978Z,10.40
2022-11-16T21:12:20.618Z,10.40
2022-11-16T21:14:47.279Z,10.50
2022-11-16T21:17:13.984Z,10.40
2022-11-16T21:19:49.882Z,10.40
2022-11-16T21:22:31.046Z,10.40
2022-11-16T21:24:58.882Z,10.20
2022-11-16T21:30:09.622Z,10.20
2022-11-16T21:32:36.335Z,10.30
2022-11-16T21:35:02.957Z,10.20
2022-11-16T21:37:29.632Z,10.10
2022-11-16T21:39:56.278Z,10.20
2022-11-16T21:42:22.946Z,10.10
2022-11-16T21:44:49.614Z,10.10
2022-11-16T21:47:17.120Z,10.10
2022-11-16T21:50:08.591Z,9.70
2022-11-16T21:52:32.883Z,9.70
2022-11-16T21:54:59.567Z,9.80
2022-11-16T21:57:26.189Z,9.50
2022-11-16T21:59:52.833Z,9.80
2022-11-16T22:02:19.472Z,9.80
2022-11-16T22:04:46.180Z,9.50
2022-11-16T22:07:12.860Z,9.30
2022-11-16T22:09:39.505Z,9.60
2022-11-16T22:12:06.175Z,9.70
2022-11-16T22:14:32.874Z,9.60
2022-11-16T22:16:59.500Z,9.70
2022-11-16T22:19:26.244Z,9.80
2022-11-16T22:21:52.925Z,9.80
2022-11-16T22:24:19.758Z,9.90
2022-11-16T22:26:46.377Z,10.00
2022-11-16T22:29:13.132Z,10.00
2022-11-16T22:31:39.771Z,9.50
2022-11-16T22:34:06.458Z,9.80
2022-11-16T22:36:33.126Z,9.80
2022-11-16T22:38:59.777Z,9.70
2022-11-16T22:41:26.445Z,9.60
2022-11-16T22:43:53.087Z,9.30
2022-11-16T22:46:19.768Z,9.50
2022-11-16T22:48:46.407Z,9.70
2022-11-16T22:51:13.112Z,9.50
2022-11-16T22:53:39.826Z,9.40
2022-11-16T22:56:06.509Z,9.70
2022-11-16T22:58:33.140Z,9.80
2022-11-16T23:00:59.744Z,9.90
2022-11-16T23:03:26.424Z,9.90
2022-11-16T23:05:53.096Z,9.90
2022-11-16T23:08:19.740Z,9.60
2022-11-16T23:10:49.233Z,9.50
2022-11-16T23:13:16.006Z,9.50
2022-11-16T23:15:42.627Z,9.20
2022-11-16T23:18:09.286Z,9.30
2022-11-16T23:20:35.959Z,9.50
2022-11-16T23:23:02.573Z,9.70
2022-11-16T23:25:29.214Z,9.70
2022-11-16T23:27:55.865Z,9.50
2022-11-16T23:30:22.520Z,9.50
2022-11-16T23:32:49.358Z,9.70
2022-11-16T23:35:15.991Z,9.70
2022-11-16T23:37:42.634Z,9.70
2022-11-16T23:40:09.259Z,9.60
2022-11-16T23:42:35.922Z,9.80
2022-11-16T23:45:02.559Z,9.80
2022-11-16T23:47:29.190Z,9.50
2022-11-16T23:49:55.804Z,9.30
2022-11-16T23:52:22.453Z,9.40
2022-11-16T23:54:49.065Z,9.40
2022-11-16T23:57:15.690Z,9.00
2022-11-16T23:59:42.372Z,8.80
